sensor_id;sensor_type;location;lat;lon;timestamp;pressure;altitude;pressure_sealevel;temperature;humidity
69796;BME280;57073;45.650;9.612;2023-05-20T00:00:31;99339.84;;;12.96;76.14
69796;BME280;57073;45.650;9.612;2023-05-20T00:05:32;99338.81;;;12.97;75.82
69796;BME280;57073;45.650;9.612;2023-05-20T00:10:32;99335.88;;;13.04;75.20
69796;BME280;57073;45.650;9.612;2023-05-20T00:15:33;99340.81;;;13.07;75.64
69796;BME280;57073;45.650;9.612;2023-05-20T00:20:35;99333.56;;;13.13;75.73
69796;BME280;57073;45.650;9.612;2023-05-20T00:25:35;99331.66;;;13.13;76.14
69796;BME280;57073;45.650;9.612;2023-05-20T00:30:38;99316.56;;;13.17;75.88
69796;BME280;57073;45.650;9.612;2023-05-20T00:35:39;99320.09;;;13.18;76.08
69796;BME280;57073;45.650;9.612;2023-05-20T00:40:39;99317.13;;;13.19;76.37
69796;BME280;57073;45.650;9.612;2023-05-20T00:45:40;99322.03;;;13.22;76.13
69796;BME280;57073;45.650;9.612;2023-05-20T00:50:40;99317.19;;;13.24;76.17
69796;BME280;57073;45.650;9.612;2023-05-20T00:55:42;99321.53;;;13.25;76.04
69796;BME280;57073;45.650;9.612;2023-05-20T01:00:42;99322.84;;;13.23;76.29
69796;BME280;57073;45.650;9.612;2023-05-20T01:05:42;99323.66;;;13.23;76.18
69796;BME280;57073;45.650;9.612;2023-05-20T01:10:45;99318.19;;;13.18;76.09
69796;BME280;57073;45.650;9.612;2023-05-20T01:15:47;99311.78;;;13.24;76.06
69796;BME280;57073;45.650;9.612;2023-05-20T01:20:49;99314.38;;;13.14;76.70
69796;BME280;57073;45.650;9.612;2023-05-20T01:25:50;99306.31;;;13.19;74.93
69796;BME280;57073;45.650;9.612;2023-05-20T01:30:55;99308.88;;;13.09;75.76
69796;BME280;57073;45.650;9.612;2023-05-20T01:35:56;99297.75;;;13.05;76.53
69796;BME280;57073;45.650;9.612;2023-05-20T01:40:58;99288.16;;;13.47;74.09
69796;BME280;57073;45.650;9.612;2023-05-20T01:46:00;99289.22;;;13.46;73.80
69796;BME280;57073;45.650;9.612;2023-05-20T01:51:01;99286.44;;;13.63;72.61
69796;BME280;57073;45.650;9.612;2023-05-20T01:56:04;99282.59;;;13.32;73.86
69796;BME280;57073;45.650;9.612;2023-05-20T02:01:04;99289.94;;;13.09;75.21
69796;BME280;57073;45.650;9.612;2023-05-20T02:06:05;99275.53;;;13.03;75.44
69796;BME280;57073;45.650;9.612;2023-05-20T02:11:05;99273.06;;;13.02;75.30
69796;BME280;57073;45.650;9.612;2023-05-20T02:16:05;99269.25;;;12.98;75.42
69796;BME280;57073;45.650;9.612;2023-05-20T02:21:06;99262.75;;;12.99;74.62
69796;BME280;57073;45.650;9.612;2023-05-20T02:26:06;99260.25;;;12.92;75.69
69796;BME280;57073;45.650;9.612;2023-05-20T02:31:06;99250.16;;;12.87;75.96
69796;BME280;57073;45.650;9.612;2023-05-20T02:36:07;99248.47;;;12.81;75.47
69796;BME280;57073;45.650;9.612;2023-05-20T02:41:07;99249.41;;;12.70;75.30
69796;BME280;57073;45.650;9.612;2023-05-20T02:46:07;99240.63;;;12.80;76.25
69796;BME280;57073;45.650;9.612;2023-05-20T02:51:08;99237.66;;;12.81;76.71
69796;BME280;57073;45.650;9.612;2023-05-20T02:56:08;99232.66;;;12.73;76.91
69796;BME280;57073;45.650;9.612;2023-05-20T03:01:08;99242.50;;;12.79;76.52
69796;BME280;57073;45.650;9.612;2023-05-20T03:06:09;99230.03;;;12.78;75.81
69796;BME280;57073;45.650;9.612;2023-05-20T03:11:10;99235.94;;;12.75;75.87
69796;BME280;57073;45.650;9.612;2023-05-20T03:16:10;99241.19;;;12.82;75.80
69796;BME280;57073;45.650;9.612;2023-05-20T03:21:12;99238.41;;;12.77;75.90
69796;BME280;57073;45.650;9.612;2023-05-20T03:26:12;99235.03;;;12.86;74.72
69796;BME280;57073;45.650;9.612;2023-05-20T03:31:12;99226.59;;;12.83;75.33
69796;BME280;57073;45.650;9.612;2023-05-20T03:36:13;99220.41;;;12.87;74.50
69796;BME280;57073;45.650;9.612;2023-05-20T03:41:13;99211.09;;;12.78;74.42
69796;BME280;57073;45.650;9.612;2023-05-20T03:46:13;99210.53;;;12.76;74.42
69796;BME280;57073;45.650;9.612;2023-05-20T03:51:14;99212.19;;;12.77;74.28
69796;BME280;57073;45.650;9.612;2023-05-20T03:56:14;99210.53;;;12.76;75.04
69796;BME280;57073;45.650;9.612;2023-05-20T04:01:15;99215.13;;;12.76;74.07
69796;BME280;57073;45.650;9.612;2023-05-20T04:06:15;99206.97;;;12.53;74.63
69796;BME280;57073;45.650;9.612;2023-05-20T04:11:15;99217.50;;;12.72;74.46
69796;BME280;57073;45.650;9.612;2023-05-20T04:16:16;99206.13;;;12.70;74.36
69796;BME280;57073;45.650;9.612;2023-05-20T04:21:16;99201.94;;;12.62;74.26
69796;BME280;57073;45.650;9.612;2023-05-20T04:26:18;99194.84;;;12.56;74.09
69796;BME280;57073;45.650;9.612;2023-05-20T04:31:19;99189.44;;;12.56;74.47
69796;BME280;57073;45.650;9.612;2023-05-20T04:36:25;99183.78;;;12.58;74.34
69796;BME280;57073;45.650;9.612;2023-05-20T04:41:27;99177.22;;;12.53;74.30
69796;BME280;57073;45.650;9.612;2023-05-20T04:46:28;99182.53;;;12.43;74.46
69796;BME280;57073;45.650;9.612;2023-05-20T04:51:29;99178.50;;;12.46;74.81
69796;BME280;57073;45.650;9.612;2023-05-20T04:56:29;99179.44;;;12.57;74.87
69796;BME280;57073;45.650;9.612;2023-05-20T05:01:29;99182.16;;;12.57;75.07
69796;BME280;57073;45.650;9.612;2023-05-20T05:06:30;99180.47;;;12.50;74.44
69796;BME280;57073;45.650;9.612;2023-05-20T05:11:31;99174.53;;;12.53;74.38
69796;BME280;57073;45.650;9.612;2023-05-20T05:16:31;99171.06;;;12.58;74.22
69796;BME280;57073;45.650;9.612;2023-05-20T05:21:31;99159.94;;;12.55;74.60
69796;BME280;57073;45.650;9.612;2023-05-20T05:26:32;99151.88;;;12.60;74.13
69796;BME280;57073;45.650;9.612;2023-05-20T05:31:32;99150.19;;;12.53;74.64
69796;BME280;57073;45.650;9.612;2023-05-20T05:36:33;99145.69;;;12.59;74.55
69796;BME280;57073;45.650;9.612;2023-05-20T05:41:33;99140.81;;;12.61;74.38
69796;BME280;57073;45.650;9.612;2023-05-20T05:46:33;99136.97;;;12.57;74.25
69796;BME280;57073;45.650;9.612;2023-05-20T05:51:34;99134.06;;;12.64;74.34
69796;BME280;57073;45.650;9.612;2023-05-20T05:56:35;99132.63;;;12.78;74.04
69796;BME280;57073;45.650;9.612;2023-05-20T06:01:35;99135.34;;;12.78;74.15
69796;BME280;57073;45.650;9.612;2023-05-20T06:06:36;99127.28;;;12.83;73.88
69796;BME280;57073;45.650;9.612;2023-05-20T06:11:36;99136.31;;;12.94;73.62
69796;BME280;57073;45.650;9.612;2023-05-20T06:16:37;99136.75;;;12.86;73.59
69796;BME280;57073;45.650;9.612;2023-05-20T06:21:38;99124.09;;;12.91;73.38
69796;BME280;57073;45.650;9.612;2023-05-20T06:26:38;99129.06;;;13.00;72.56
69796;BME280;57073;45.650;9.612;2023-05-20T06:31:39;99134.53;;;13.05;72.19
69796;BME280;57073;45.650;9.612;2023-05-20T06:36:39;99131.88;;;13.15;72.11
69796;BME280;57073;45.650;9.612;2023-05-20T06:41:39;99125.16;;;13.18;72.22
69796;BME280;57073;45.650;9.612;2023-05-20T06:46:40;99133.63;;;13.26;72.26
69796;BME280;57073;45.650;9.612;2023-05-20T06:51:40;99141.59;;;13.11;71.31
69796;BME280;57073;45.650;9.612;2023-05-20T06:56:43;99142.09;;;13.08;71.58
69796;BME280;57073;45.650;9.612;2023-05-20T07:01:43;99153.34;;;13.22;71.14
69796;BME280;57073;45.650;9.612;2023-05-20T07:06:44;99147.47;;;13.30;71.40
69796;BME280;57073;45.650;9.612;2023-05-20T07:11:44;99152.44;;;13.43;71.78
69796;BME280;57073;45.650;9.612;2023-05-20T07:16:45;99146.00;;;13.55;71.51
69796;BME280;57073;45.650;9.612;2023-05-20T07:21:45;99146.50;;;13.84;69.48
69796;BME280;57073;45.650;9.612;2023-05-20T07:26:45;99142.06;;;14.10;68.19
69796;BME280;57073;45.650;9.612;2023-05-20T07:31:46;99137.69;;;14.09;67.86
69796;BME280;57073;45.650;9.612;2023-05-20T07:36:46;99143.94;;;14.15;67.54
69796;BME280;57073;45.650;9.612;2023-05-20T07:41:46;99139.06;;;14.07;67.15
69796;BME280;57073;45.650;9.612;2023-05-20T07:46:47;99142.06;;;14.10;66.68
69796;BME280;57073;45.650;9.612;2023-05-20T07:51:47;99140.41;;;14.09;67.32
69796;BME280;57073;45.650;9.612;2023-05-20T07:56:47;99150.00;;;14.32;66.50
69796;BME280;57073;45.650;9.612;2023-05-20T08:01:48;99148.16;;;14.43;66.58
69796;BME280;57073;45.650;9.612;2023-05-20T08:06:48;99144.09;;;14.51;66.10
69796;BME280;57073;45.650;9.612;2023-05-20T08:11:49;99136.00;;;14.61;66.37
69796;BME280;57073;45.650;9.612;2023-05-20T08:16:50;99127.31;;;14.69;66.30
69796;BME280;57073;45.650;9.612;2023-05-20T08:21:50;99130.88;;;14.70;65.38
69796;BME280;57073;45.650;9.612;2023-05-20T08:26:50;99127.88;;;14.66;65.45
69796;BME280;57073;45.650;9.612;2023-05-20T08:31:51;99136.81;;;14.61;65.05
69796;BME280;57073;45.650;9.612;2023-05-20T08:36:51;99131.69;;;14.70;64.85
69796;BME280;57073;45.650;9.612;2023-05-20T08:41:52;99143.09;;;14.72;64.91
69796;BME280;57073;45.650;9.612;2023-05-20T08:46:53;99144.47;;;14.75;64.42
69796;BME280;57073;45.650;9.612;2023-05-20T08:51:54;99150.75;;;14.91;64.25
69796;BME280;57073;45.650;9.612;2023-05-20T08:56:55;99165.41;;;14.90;63.93
69796;BME280;57073;45.650;9.612;2023-05-20T09:01:56;99153.69;;;14.79;64.41
69796;BME280;57073;45.650;9.612;2023-05-20T09:06:56;99174.66;;;14.99;64.19
69796;BME280;57073;45.650;9.612;2023-05-20T09:11:56;99174.69;;;15.09;64.64
69796;BME280;57073;45.650;9.612;2023-05-20T09:16:57;99178.50;;;15.18;64.53
69796;BME280;57073;45.650;9.612;2023-05-20T09:21:57;99179.03;;;15.31;64.57
69796;BME280;57073;45.650;9.612;2023-05-20T09:26:57;99178.50;;;15.39;63.98
69796;BME280;57073;45.650;9.612;2023-05-20T09:32:00;99190.72;;;15.62;64.70
69796;BME280;57073;45.650;9.612;2023-05-20T09:37:02;99189.38;;;15.49;63.73
69796;BME280;57073;45.650;9.612;2023-05-20T09:42:33;99200.78;;;15.72;63.65
69796;BME280;57073;45.650;9.612;2023-05-20T09:47:37;99193.44;;;15.77;63.32
69796;BME280;57073;45.650;9.612;2023-05-20T09:52:38;99201.31;;;15.74;62.72
69796;BME280;57073;45.650;9.612;2023-05-20T09:57:38;99204.06;;;15.64;63.13
69796;BME280;57073;45.650;9.612;2023-05-20T10:02:49;99211.66;;;15.77;63.60
69796;BME280;57073;45.650;9.612;2023-05-20T10:19:27;99201.63;;;15.88;62.96
69796;BME280;57073;45.650;9.612;2023-05-20T10:30:13;99198.06;;;15.92;63.38
69796;BME280;57073;45.650;9.612;2023-05-20T10:35:20;99192.09;;;15.85;64.12
69796;BME280;57073;45.650;9.612;2023-05-20T10:40:21;99182.00;;;15.96;63.84
69796;BME280;57073;45.650;9.612;2023-05-20T10:45:27;99180.13;;;15.91;64.04
69796;BME280;57073;45.650;9.612;2023-05-20T10:50:36;99188.22;;;16.17;64.12
69796;BME280;57073;45.650;9.612;2023-05-20T10:55:46;99173.50;;;16.28;64.05
69796;BME280;57073;45.650;9.612;2023-05-20T11:00:48;99157.34;;;16.52;63.41
69796;BME280;57073;45.650;9.612;2023-05-20T11:05:49;99134.09;;;16.76;63.12
69796;BME280;57073;45.650;9.612;2023-05-20T11:10:50;99134.47;;;17.03;63.42
69796;BME280;57073;45.650;9.612;2023-05-20T11:15:50;99125.63;;;17.22;62.68
69796;BME280;57073;45.650;9.612;2023-05-20T11:20:51;99134.81;;;17.31;61.88
69796;BME280;57073;45.650;9.612;2023-05-20T11:25:54;99122.03;;;17.26;61.79
69796;BME280;57073;45.650;9.612;2023-05-20T11:30:55;99123.19;;;17.20;60.26
69796;BME280;57073;45.650;9.612;2023-05-20T11:35:55;99129.91;;;17.28;60.33
69796;BME280;57073;45.650;9.612;2023-05-20T11:40:56;99120.91;;;17.33;59.49
69796;BME280;57073;45.650;9.612;2023-05-20T11:45:57;99105.91;;;17.30;58.73
69796;BME280;57073;45.650;9.612;2023-05-20T11:51:01;99113.53;;;17.33;58.46
69796;BME280;57073;45.650;9.612;2023-05-20T11:56:01;99116.25;;;17.33;59.03
69796;BME280;57073;45.650;9.612;2023-05-20T12:01:02;99124.47;;;17.28;58.02
69796;BME280;57073;45.650;9.612;2023-05-20T12:06:02;99123.50;;;17.14;58.60
69796;BME280;57073;45.650;9.612;2023-05-20T12:11:03;99132.81;;;17.07;58.87
69796;BME280;57073;45.650;9.612;2023-05-20T12:16:04;99119.00;;;16.94;60.03
69796;BME280;57073;45.650;9.612;2023-05-20T12:21:07;99126.06;;;17.00;60.04
69796;BME280;57073;45.650;9.612;2023-05-20T12:26:08;99117.94;;;16.95;60.52
69796;BME280;57073;45.650;9.612;2023-05-20T12:31:08;99114.97;;;16.86;61.29
69796;BME280;57073;45.650;9.612;2023-05-20T12:36:09;99124.75;;;16.87;62.62
69796;BME280;57073;45.650;9.612;2023-05-20T12:41:09;99114.94;;;16.91;63.10
69796;BME280;57073;45.650;9.612;2023-05-20T12:46:10;99117.44;;;16.87;62.10
69796;BME280;57073;45.650;9.612;2023-05-20T12:51:10;99097.84;;;16.85;61.82
69796;BME280;57073;45.650;9.612;2023-05-20T12:56:10;99086.16;;;16.80;62.46
69796;BME280;57073;45.650;9.612;2023-05-20T13:01:11;99101.38;;;16.86;63.57
69796;BME280;57073;45.650;9.612;2023-05-20T13:06:11;99096.41;;;16.93;63.95
69796;BME280;57073;45.650;9.612;2023-05-20T13:11:12;99088.56;;;16.86;62.96
69796;BME280;57073;45.650;9.612;2023-05-20T13:16:12;99081.03;;;16.73;63.16
69796;BME280;57073;45.650;9.612;2023-05-20T13:21:13;99073.38;;;16.70;62.94
69796;BME280;57073;45.650;9.612;2023-05-20T13:26:13;99079.09;;;16.79;63.15
69796;BME280;57073;45.650;9.612;2023-05-20T13:31:14;99080.84;;;16.99;63.65
69796;BME280;57073;45.650;9.612;2023-05-20T13:36:14;99078.84;;;17.09;63.99
69796;BME280;57073;45.650;9.612;2023-05-20T13:41:15;99076.09;;;17.15;63.66
69796;BME280;57073;45.650;9.612;2023-05-20T13:46:15;99070.47;;;17.01;63.88
69796;BME280;57073;45.650;9.612;2023-05-20T13:51:16;99067.16;;;17.09;64.16
69796;BME280;57073;45.650;9.612;2023-05-20T13:56:16;99068.78;;;17.05;63.78
69796;BME280;57073;45.650;9.612;2023-05-20T14:01:17;99067.09;;;17.14;64.19
69796;BME280;57073;45.650;9.612;2023-05-20T14:06:18;99071.47;;;17.10;64.20
69796;BME280;57073;45.650;9.612;2023-05-20T14:11:18;99076.94;;;17.10;63.68
69796;BME280;57073;45.650;9.612;2023-05-20T14:16:19;99098.19;;;17.08;63.63
69796;BME280;57073;45.650;9.612;2023-05-20T14:21:19;99110.25;;;17.02;63.27
69796;BME280;57073;45.650;9.612;2023-05-20T14:26:20;99118.78;;;16.85;64.07
69796;BME280;57073;45.650;9.612;2023-05-20T14:31:20;99094.91;;;16.71;64.79
69796;BME280;57073;45.650;9.612;2023-05-20T14:36:21;99092.66;;;16.84;64.66
69796;BME280;57073;45.650;9.612;2023-05-20T14:41:21;99084.00;;;16.71;64.42
69796;BME280;57073;45.650;9.612;2023-05-20T14:46:22;99080.81;;;16.59;64.50
69796;BME280;57073;45.650;9.612;2023-05-20T14:51:22;99095.44;;;16.73;63.85
69796;BME280;57073;45.650;9.612;2023-05-20T14:56:22;99093.84;;;16.67;63.67
69796;BME280;57073;45.650;9.612;2023-05-20T15:01:23;99102.53;;;16.69;63.58
69796;BME280;57073;45.650;9.612;2023-05-20T15:06:23;99108.88;;;16.54;64.18
69796;BME280;57073;45.650;9.612;2023-05-20T15:11:24;99108.84;;;16.60;63.89
69796;BME280;57073;45.650;9.612;2023-05-20T15:16:24;99106.66;;;16.62;64.45
69796;BME280;57073;45.650;9.612;2023-05-20T15:21:25;99115.13;;;16.60;63.56
69796;BME280;57073;45.650;9.612;2023-05-20T15:26:25;99116.47;;;16.58;63.28
69796;BME280;57073;45.650;9.612;2023-05-20T15:31:26;99122.28;;;16.41;63.50
69796;BME280;57073;45.650;9.612;2023-05-20T15:36:26;99115.78;;;16.37;63.87
69796;BME280;57073;45.650;9.612;2023-05-20T15:41:26;99130.72;;;16.39;64.12
69796;BME280;57073;45.650;9.612;2023-05-20T15:46:27;99119.06;;;16.33;65.27
69796;BME280;57073;45.650;9.612;2023-05-20T15:51:27;99113.34;;;16.35;65.34
69796;BME280;57073;45.650;9.612;2023-05-20T15:56:28;99105.44;;;16.33;65.34
69796;BME280;57073;45.650;9.612;2023-05-20T16:01:29;99115.00;;;16.31;66.63
69796;BME280;57073;45.650;9.612;2023-05-20T16:06:29;99109.81;;;16.29;67.24
69796;BME280;57073;45.650;9.612;2023-05-20T16:11:31;99100.03;;;16.23;67.78
69796;BME280;57073;45.650;9.612;2023-05-20T16:16:32;99101.16;;;16.22;67.26
69796;BME280;57073;45.650;9.612;2023-05-20T16:21:32;99094.66;;;16.18;68.83
69796;BME280;57073;45.650;9.612;2023-05-20T16:26:32;99097.06;;;16.20;68.10
69796;BME280;57073;45.650;9.612;2023-05-20T16:31:33;99094.91;;;16.22;68.33
69796;BME280;57073;45.650;9.612;2023-05-20T16:36:33;99099.28;;;16.12;68.42
69796;BME280;57073;45.650;9.612;2023-05-20T16:41:33;99097.94;;;16.10;68.54
69796;BME280;57073;45.650;9.612;2023-05-20T16:46:34;99097.69;;;15.96;69.53
69796;BME280;57073;45.650;9.612;2023-05-20T16:51:34;99094.69;;;16.08;69.56
69796;BME280;57073;45.650;9.612;2023-05-20T16:56:35;99105.03;;;16.01;69.87
69796;BME280;57073;45.650;9.612;2023-05-20T17:01:36;99104.78;;;16.02;70.26
69796;BME280;57073;45.650;9.612;2023-05-20T17:06:36;99098.81;;;16.00;70.42
69796;BME280;57073;45.650;9.612;2023-05-20T17:11:39;99093.66;;;15.93;71.47
69796;BME280;57073;45.650;9.612;2023-05-20T17:16:39;99091.97;;;16.03;70.75
69796;BME280;57073;45.650;9.612;2023-05-20T17:21:40;99091.44;;;16.06;70.55
69796;BME280;57073;45.650;9.612;2023-05-20T17:26:40;99099.91;;;15.89;70.94
69796;BME280;57073;45.650;9.612;2023-05-20T17:31:42;99104.25;;;15.90;71.04
69796;BME280;57073;45.650;9.612;2023-05-20T17:36:43;99101.53;;;15.90;71.30
69796;BME280;57073;45.650;9.612;2023-05-20T17:41:43;99104.00;;;15.81;70.74
69796;BME280;57073;45.650;9.612;2023-05-20T17:46:43;99117.31;;;15.72;71.67
69796;BME280;57073;45.650;9.612;2023-05-20T17:51:44;99114.88;;;15.71;73.18
69796;BME280;57073;45.650;9.612;2023-05-20T17:56:46;99115.97;;;15.80;72.72
69796;BME280;57073;45.650;9.612;2023-05-20T18:01:46;99123.84;;;15.76;72.42
69796;BME280;57073;45.650;9.612;2023-05-20T18:06:47;99118.97;;;15.73;71.59
69796;BME280;57073;45.650;9.612;2023-05-20T18:11:47;99115.16;;;15.69;71.06
69796;BME280;57073;45.650;9.612;2023-05-20T18:16:48;99111.66;;;15.58;70.75
69796;BME280;57073;45.650;9.612;2023-05-20T18:21:49;99110.00;;;15.68;70.98
69796;BME280;57073;45.650;9.612;2023-05-20T18:26:50;99120.06;;;15.62;71.08
69796;BME280;57073;45.650;9.612;2023-05-20T18:31:50;99118.69;;;15.54;71.09
69796;BME280;57073;45.650;9.612;2023-05-20T18:36:51;99120.34;;;15.55;71.11
69796;BME280;57073;45.650;9.612;2023-05-20T18:41:51;99119.00;;;15.53;71.65
69796;BME280;57073;45.650;9.612;2023-05-20T18:46:51;99119.81;;;15.43;72.37
69796;BME280;57073;45.650;9.612;2023-05-20T18:51:52;99134.19;;;15.54;71.09
69796;BME280;57073;45.650;9.612;2023-05-20T18:56:52;99134.19;;;15.44;72.00
69796;BME280;57073;45.650;9.612;2023-05-20T19:01:53;99142.91;;;15.46;71.65
69796;BME280;57073;45.650;9.612;2023-05-20T19:06:53;99150.22;;;15.45;72.14
69796;BME280;57073;45.650;9.612;2023-05-20T19:11:54;99155.13;;;15.48;72.22
69796;BME280;57073;45.650;9.612;2023-05-20T19:16:58;99157.84;;;15.43;71.38
69796;BME280;57073;45.650;9.612;2023-05-20T19:21:59;99158.38;;;15.45;71.92
69796;BME280;57073;45.650;9.612;2023-05-20T19:27:00;99174.69;;;15.45;72.43
69796;BME280;57073;45.650;9.612;2023-05-20T19:32:01;99173.06;;;15.39;72.59
69796;BME280;57073;45.650;9.612;2023-05-20T19:37:02;99164.94;;;15.44;71.88
69796;BME280;57073;45.650;9.612;2023-05-20T19:42:02;99174.97;;;15.33;71.82
69796;BME280;57073;45.650;9.612;2023-05-20T19:47:03;99187.19;;;15.26;71.89
69796;BME280;57073;45.650;9.612;2023-05-20T19:52:06;99187.19;;;15.15;71.84
69796;BME280;57073;45.650;9.612;2023-05-20T19:57:06;99196.41;;;15.25;72.15
69796;BME280;57073;45.650;9.612;2023-05-20T20:02:06;99185.28;;;15.06;72.43
69796;BME280;57073;45.650;9.612;2023-05-20T20:07:07;99185.00;;;15.02;72.00
69796;BME280;57073;45.650;9.612;2023-05-20T20:12:08;99179.00;;;14.95;71.83
69796;BME280;57073;45.650;9.612;2023-05-20T20:17:08;99180.00;;;14.83;72.03
69796;BME280;57073;45.650;9.612;2023-05-20T20:22:13;99178.88;;;14.69;72.62
69796;BME280;57073;45.650;9.612;2023-05-20T20:27:14;99170.19;;;14.62;72.46
69796;BME280;57073;45.650;9.612;2023-05-20T20:32:14;99159.31;;;14.62;72.45
69796;BME280;57073;45.650;9.612;2023-05-20T20:37:14;99145.13;;;14.34;72.66
69796;BME280;57073;45.650;9.612;2023-05-20T20:42:16;99155.75;;;14.41;73.57
69796;BME280;57073;45.650;9.612;2023-05-20T20:47:17;99142.69;;;14.38;73.08
69796;BME280;57073;45.650;9.612;2023-05-20T20:52:18;99152.53;;;14.54;73.31
69796;BME280;57073;45.650;9.612;2023-05-20T20:57:18;99141.09;;;14.47;72.63
69796;BME280;57073;45.650;9.612;2023-05-20T21:02:18;99152.53;;;14.54;73.57
69796;BME280;57073;45.650;9.612;2023-05-20T21:07:19;99145.22;;;14.65;71.89
69796;BME280;57073;45.650;9.612;2023-05-20T21:12:19;99144.38;;;14.54;71.42
69796;BME280;57073;45.650;9.612;2023-05-20T21:17:19;99143.84;;;14.57;71.67
69796;BME280;57073;45.650;9.612;2023-05-20T21:22:20;99134.63;;;14.58;71.16
69796;BME280;57073;45.650;9.612;2023-05-20T21:27:20;99146.34;;;14.64;71.27
69796;BME280;57073;45.650;9.612;2023-05-20T21:32:21;99146.91;;;14.71;71.44
69796;BME280;57073;45.650;9.612;2023-05-20T21:37:21;99144.75;;;14.78;71.51
69796;BME280;57073;45.650;9.612;2023-05-20T21:42:21;99153.13;;;14.72;71.36
69796;BME280;57073;45.650;9.612;2023-05-20T21:47:22;99157.47;;;14.73;71.01
69796;BME280;57073;45.650;9.612;2023-05-20T21:52:22;99140.34;;;14.67;69.83
69796;BME280;57073;45.650;9.612;2023-05-20T21:57:22;99149.88;;;14.70;70.26
69796;BME280;57073;45.650;9.612;2023-05-20T22:02:23;99150.69;;;14.70;69.85
69796;BME280;57073;45.650;9.612;2023-05-20T22:07:23;99163.72;;;14.73;70.25
69796;BME280;57073;45.650;9.612;2023-05-20T22:12:24;99162.63;;;14.74;69.90
69796;BME280;57073;45.650;9.612;2023-05-20T22:17:24;99167.75;;;14.71;69.99
69796;BME280;57073;45.650;9.612;2023-05-20T22:22:25;99172.09;;;14.67;69.48
69796;BME280;57073;45.650;9.612;2023-05-20T22:27:25;99179.72;;;14.70;69.51
69796;BME280;57073;45.650;9.612;2023-05-20T22:32:25;99162.06;;;14.67;69.69
69796;BME280;57073;45.650;9.612;2023-05-20T22:37:26;99161.03;;;14.78;70.08
69796;BME280;57073;45.650;9.612;2023-05-20T22:42:27;99147.44;;;14.73;70.98
69796;BME280;57073;45.650;9.612;2023-05-20T22:47:28;99139.28;;;14.68;70.90
69796;BME280;57073;45.650;9.612;2023-05-20T22:52:28;99112.38;;;14.51;70.55
69796;BME280;57073;45.650;9.612;2023-05-20T22:57:29;99118.06;;;14.55;70.98
69796;BME280;57073;45.650;9.612;2023-05-20T23:02:29;99117.53;;;14.48;70.81
69796;BME280;57073;45.650;9.612;2023-05-20T23:07:30;99106.59;;;14.27;70.80
69796;BME280;57073;45.650;9.612;2023-05-20T23:12:31;99091.41;;;14.31;70.50
69796;BME280;57073;45.650;9.612;2023-05-20T23:17:31;99091.34;;;14.11;71.10
69796;BME280;57073;45.650;9.612;2023-05-20T23:22:31;99081.59;;;14.15;70.46
69796;BME280;57073;45.650;9.612;2023-05-20T23:27:32;99078.31;;;14.08;70.44
69796;BME280;57073;45.650;9.612;2023-05-20T23:32:32;99078.59;;;14.06;70.22
69796;BME280;57073;45.650;9.612;2023-05-20T23:37:33;99076.47;;;14.13;70.53
69796;BME280;57073;45.650;9.612;2023-05-20T23:42:36;99061.50;;;14.11;70.04
69796;BME280;57073;45.650;9.612;2023-05-20T23:47:37;99058.81;;;14.16;69.84
69796;BME280;57073;45.650;9.612;2023-05-20T23:52:37;99054.22;;;14.16;70.37
69796;BME280;57073;45.650;9.612;2023-05-20T23:57:39;99042.56;;;14.16;70.28
